Messwerte Mombasa

Temperatur

Temperatur
°C
1576371600 4.00 4.00 25
1576375200 5.00 5.00 25
1576378800 6.00 6.00 25
1576382400 7.00 7.00 26
1576386000 8.00 8.00 27
1576389600 9.00 9.00 29
1576393200 10.00 10.00 29
1576396800 11.00 11.00 31
1576400400 12.00 12.00 33
1576404000 13.00 13.00 33
1576407600 14.00 14.00 32
1576411200 15.00 15.00 32
1576414800 16.00 16.00 31
1576418400 17.00 17.00 31
1576422000 18.00 18.00 30
1576425600 19.00 19.00 28
1576429200 20.00 20.00 28
1576432800 21.00 21.00 27
1576436400 22.00 22.00
1576440000 23.00 23.00
1576443600 0.00 0.00 26
1576447200 1.00 1.00
1576450800 2.00 2.00
1576454400 3.00 3.00 26

Aktuellste Messwerte

Wettercharakter
Wetter: meist klar
Temperatur
26 °C
Feuchtigkeit
90 %
Wind
5 km/hWindrichtung: West
Luftdruck
1010 hPa
Messzeit: 16. Dezember 2019, 3.00Datenquelle: METAR

Weitere Messstationen in der Nähe

Messstation Temperatur Entfernung
Malindi - 104 km
Sansibar - 247 km
Kilimanjaro Flughafen - 291 km
Daressalam 27 °C 319 km
Arusha 15 °C 342 km
Morogoro - 380 km
Nairobi 17 °C 425 km

Wind

Windrichtung Böen Mittelwind
° km/h km/h
1576371600 4.00 3.00 - 4.00 260° 5
1576375200 5.00 4.00 - 5.00 280° 5
1576378800 6.00 5.00 - 6.00 290° 5
1576382400 7.00 6.00 - 7.00 300° 5
1576386000 8.00 7.00 - 8.00 320° 10
1576389600 9.00 8.00 - 9.00 340° 10
1576393200 10.00 9.00 - 10.00 350° 15
1576396800 11.00 10.00 - 11.00 350° 10
1576400400 12.00 11.00 - 12.00 30° 10
1576404000 13.00 12.00 - 13.00 30° 10
1576407600 14.00 13.00 - 14.00 90° 15
1576411200 15.00 14.00 - 15.00 90° 20
1576414800 16.00 15.00 - 16.00 100° 20
1576418400 17.00 16.00 - 17.00 90° 15
1576422000 18.00 17.00 - 18.00 90° 15
1576425600 19.00 18.00 - 19.00 80° 10
1576429200 20.00 19.00 - 20.00 70° 5
1576432800 21.00 20.00 - 21.00 50° 10
1576436400 22.00 21.00 - 22.00
1576440000 23.00 22.00 - 23.00
1576443600 0.00 23.00 - 0.00 0
1576447200 1.00 0.00 - 1.00
1576450800 2.00 1.00 - 2.00
1576454400 3.00 2.00 - 3.00 290° 5

Ihre Wetterstation

Fehlt Ihre Wetterstation auf unserem Portal?

Schreiben Sie an network@meteonews.ch

Klima

Wann ist es am wärmsten? Wann regnet es am wenigsten? Unsere Klimadaten geben Auskunft.